sensor_id;sensor_type;location;lat;lon;timestamp;P1;durP1;ratioP1;P2;durP2;ratioP2
74347;SDS011;62778;50.406;10.008;2023-01-24T00:00:24;13.40;;;6.40;;
74347;SDS011;62778;50.406;10.008;2023-01-24T00:01:19;13.97;;;6.50;;
74347;SDS011;62778;50.406;10.008;2023-01-24T00:02:14;12.97;;;6.50;;
74347;SDS011;62778;50.406;10.008;2023-01-24T00:03:10;14.18;;;7.28;;
74347;SDS011;62778;50.406;10.008;2023-01-24T00:04:08;13.02;;;7.35;;
74347;SDS011;62778;50.406;10.008;2023-01-24T00:05:04;13.37;;;7.10;;
74347;SDS011;62778;50.406;10.008;2023-01-24T00:06:00;13.82;;;7.07;;
74347;SDS011;62778;50.406;10.008;2023-01-24T00:06:55;13.43;;;7.17;;
74347;SDS011;62778;50.406;10.008;2023-01-24T00:07:50;14.07;;;7.30;;
74347;SDS011;62778;50.406;10.008;2023-01-24T00:08:46;15.30;;;7.40;;
74347;SDS011;62778;50.406;10.008;2023-01-24T00:09:41;13.95;;;6.80;;
74347;SDS011;62778;50.406;10.008;2023-01-24T00:10:36;14.07;;;7.20;;
74347;SDS011;62778;50.406;10.008;2023-01-24T00:11:32;13.63;;;6.37;;
74347;SDS011;62778;50.406;10.008;2023-01-24T00:12:28;13.13;;;6.80;;
74347;SDS011;62778;50.406;10.008;2023-01-24T00:13:23;14.20;;;7.60;;
74347;SDS011;62778;50.406;10.008;2023-01-24T00:14:19;14.65;;;7.15;;
74347;SDS011;62778;50.406;10.008;2023-01-24T00:15:14;14.27;;;6.93;;
74347;SDS011;62778;50.406;10.008;2023-01-24T00:16:16;12.80;;;6.77;;
74347;SDS011;62778;50.406;10.008;2023-01-24T00:17:12;13.02;;;6.93;;
74347;SDS011;62778;50.406;10.008;2023-01-24T00:18:08;13.10;;;6.13;;
74347;SDS011;62778;50.406;10.008;2023-01-24T00:19:03;13.82;;;7.13;;
74347;SDS011;62778;50.406;10.008;2023-01-24T00:19:59;14.50;;;7.00;;
74347;SDS011;62778;50.406;10.008;2023-01-24T00:21:02;13.50;;;7.70;;
74347;SDS011;62778;50.406;10.008;2023-01-24T00:22:07;14.27;;;7.20;;
74347;SDS011;62778;50.406;10.008;2023-01-24T00:23:02;15.73;;;7.47;;
74347;SDS011;62778;50.406;10.008;2023-01-24T00:23:57;12.77;;;6.60;;
74347;SDS011;62778;50.406;10.008;2023-01-24T00:24:53;13.52;;;7.07;;
74347;SDS011;62778;50.406;10.008;2023-01-24T00:25:48;12.57;;;6.82;;
74347;SDS011;62778;50.406;10.008;2023-01-24T00:26:43;13.67;;;6.83;;
74347;SDS011;62778;50.406;10.008;2023-01-24T00:27:39;13.37;;;6.90;;
74347;SDS011;62778;50.406;10.008;2023-01-24T00:28:34;13.65;;;6.90;;
74347;SDS011;62778;50.406;10.008;2023-01-24T00:29:30;13.85;;;6.82;;
74347;SDS011;62778;50.406;10.008;2023-01-24T00:30:25;14.07;;;7.23;;
74347;SDS011;62778;50.406;10.008;2023-01-24T00:31:21;13.75;;;6.95;;
74347;SDS011;62778;50.406;10.008;2023-01-24T00:32:16;14.00;;;7.33;;
74347;SDS011;62778;50.406;10.008;2023-01-24T00:33:11;13.47;;;7.07;;
74347;SDS011;62778;50.406;10.008;2023-01-24T00:34:07;12.47;;;6.30;;
74347;SDS011;62778;50.406;10.008;2023-01-24T00:35:02;14.77;;;7.07;;
74347;SDS011;62778;50.406;10.008;2023-01-24T00:35:58;13.93;;;7.07;;
74347;SDS011;62778;50.406;10.008;2023-01-24T00:36:53;13.60;;;7.47;;
74347;SDS011;62778;50.406;10.008;2023-01-24T00:37:48;12.73;;;6.50;;
74347;SDS011;62778;50.406;10.008;2023-01-24T00:38:44;12.43;;;6.70;;
74347;SDS011;62778;50.406;10.008;2023-01-24T00:39:39;14.20;;;7.07;;
74347;SDS011;62778;50.406;10.008;2023-01-24T00:40:34;14.43;;;7.10;;
74347;SDS011;62778;50.406;10.008;2023-01-24T00:41:29;15.30;;;7.23;;
74347;SDS011;62778;50.406;10.008;2023-01-24T00:42:25;15.00;;;7.45;;
74347;SDS011;62778;50.406;10.008;2023-01-24T00:43:20;14.43;;;7.53;;
74347;SDS011;62778;50.406;10.008;2023-01-24T00:44:15;12.87;;;6.43;;
74347;SDS011;62778;50.406;10.008;2023-01-24T00:45:11;13.80;;;6.83;;
74347;SDS011;62778;50.406;10.008;2023-01-24T00:46:07;13.25;;;7.00;;
74347;SDS011;62778;50.406;10.008;2023-01-24T00:47:03;14.13;;;7.23;;
74347;SDS011;62778;50.406;10.008;2023-01-24T00:47:59;14.70;;;7.70;;
74347;SDS011;62778;50.406;10.008;2023-01-24T00:48:54;13.23;;;6.70;;
74347;SDS011;62778;50.406;10.008;2023-01-24T00:49:50;13.37;;;6.80;;
74347;SDS011;62778;50.406;10.008;2023-01-24T00:50:45;13.20;;;6.73;;
74347;SDS011;62778;50.406;10.008;2023-01-24T00:51:40;13.10;;;6.77;;
74347;SDS011;62778;50.406;10.008;2023-01-24T00:52:36;13.37;;;6.70;;
74347;SDS011;62778;50.406;10.008;2023-01-24T00:53:31;15.07;;;7.03;;
74347;SDS011;62778;50.406;10.008;2023-01-24T00:54:26;15.10;;;6.93;;
74347;SDS011;62778;50.406;10.008;2023-01-24T00:55:21;13.02;;;6.40;;
74347;SDS011;62778;50.406;10.008;2023-01-24T00:56:17;13.68;;;6.15;;
74347;SDS011;62778;50.406;10.008;2023-01-24T00:57:12;13.60;;;6.50;;
74347;SDS011;62778;50.406;10.008;2023-01-24T00:58:07;13.03;;;6.00;;
74347;SDS011;62778;50.406;10.008;2023-01-24T00:59:03;13.13;;;6.43;;
74347;SDS011;62778;50.406;10.008;2023-01-24T00:59:58;15.63;;;8.48;;
74347;SDS011;62778;50.406;10.008;2023-01-24T01:00:54;14.45;;;7.03;;
74347;SDS011;62778;50.406;10.008;2023-01-24T01:01:51;14.00;;;6.45;;
74347;SDS011;62778;50.406;10.008;2023-01-24T01:02:47;13.40;;;6.60;;
74347;SDS011;62778;50.406;10.008;2023-01-24T01:03:43;14.55;;;7.53;;
74347;SDS011;62778;50.406;10.008;2023-01-24T01:04:38;12.53;;;6.53;;
74347;SDS011;62778;50.406;10.008;2023-01-24T01:05:33;15.43;;;7.27;;
74347;SDS011;62778;50.406;10.008;2023-01-24T01:06:29;12.30;;;6.37;;
74347;SDS011;62778;50.406;10.008;2023-01-24T01:07:24;14.02;;;6.82;;
74347;SDS011;62778;50.406;10.008;2023-01-24T01:08:19;13.68;;;6.90;;
74347;SDS011;62778;50.406;10.008;2023-01-24T01:09:15;13.80;;;6.50;;
74347;SDS011;62778;50.406;10.008;2023-01-24T01:10:10;14.17;;;6.43;;
74347;SDS011;62778;50.406;10.008;2023-01-24T01:11:06;12.65;;;6.82;;
74347;SDS011;62778;50.406;10.008;2023-01-24T01:12:01;15.05;;;7.90;;
74347;SDS011;62778;50.406;10.008;2023-01-24T01:12:57;15.20;;;7.53;;
74347;SDS011;62778;50.406;10.008;2023-01-24T01:13:55;14.00;;;6.83;;
74347;SDS011;62778;50.406;10.008;2023-01-24T01:14:51;13.90;;;6.78;;
74347;SDS011;62778;50.406;10.008;2023-01-24T01:15:46;13.73;;;6.90;;
74347;SDS011;62778;50.406;10.008;2023-01-24T01:16:41;14.70;;;7.17;;
74347;SDS011;62778;50.406;10.008;2023-01-24T01:17:37;12.70;;;6.80;;
74347;SDS011;62778;50.406;10.008;2023-01-24T01:18:32;14.05;;;6.97;;
74347;SDS011;62778;50.406;10.008;2023-01-24T01:19:28;14.48;;;6.72;;
74347;SDS011;62778;50.406;10.008;2023-01-24T01:20:24;12.87;;;6.67;;
74347;SDS011;62778;50.406;10.008;2023-01-24T01:21:20;14.77;;;7.40;;
74347;SDS011;62778;50.406;10.008;2023-01-24T01:22:16;14.27;;;6.87;;
74347;SDS011;62778;50.406;10.008;2023-01-24T01:23:11;14.55;;;6.68;;
74347;SDS011;62778;50.406;10.008;2023-01-24T01:24:07;14.93;;;7.40;;
74347;SDS011;62778;50.406;10.008;2023-01-24T01:25:02;15.43;;;7.37;;
74347;SDS011;62778;50.406;10.008;2023-01-24T01:25:58;13.43;;;6.93;;
74347;SDS011;62778;50.406;10.008;2023-01-24T01:26:57;12.90;;;6.70;;
74347;SDS011;62778;50.406;10.008;2023-01-24T01:27:52;13.83;;;6.93;;
74347;SDS011;62778;50.406;10.008;2023-01-24T01:28:48;14.65;;;7.10;;
74347;SDS011;62778;50.406;10.008;2023-01-24T01:29:43;15.77;;;7.50;;
74347;SDS011;62778;50.406;10.008;2023-01-24T01:30:38;16.03;;;7.50;;
74347;SDS011;62778;50.406;10.008;2023-01-24T01:31:35;13.68;;;6.85;;
74347;SDS011;62778;50.406;10.008;2023-01-24T01:32:30;13.67;;;6.67;;
74347;SDS011;62778;50.406;10.008;2023-01-24T01:33:26;13.75;;;7.03;;
74347;SDS011;62778;50.406;10.008;2023-01-24T01:34:21;13.33;;;6.53;;
74347;SDS011;62778;50.406;10.008;2023-01-24T01:35:16;14.70;;;7.27;;
74347;SDS011;62778;50.406;10.008;2023-01-24T01:36:12;13.53;;;6.70;;
74347;SDS011;62778;50.406;10.008;2023-01-24T01:37:07;13.55;;;6.43;;
74347;SDS011;62778;50.406;10.008;2023-01-24T01:38:02;15.13;;;7.30;;
74347;SDS011;62778;50.406;10.008;2023-01-24T01:38:58;14.57;;;6.87;;
74347;SDS011;62778;50.406;10.008;2023-01-24T01:39:53;13.67;;;6.73;;
74347;SDS011;62778;50.406;10.008;2023-01-24T01:40:48;14.20;;;6.63;;
74347;SDS011;62778;50.406;10.008;2023-01-24T01:41:44;14.17;;;6.97;;
74347;SDS011;62778;50.406;10.008;2023-01-24T01:42:49;12.73;;;6.50;;
74347;SDS011;62778;50.406;10.008;2023-01-24T01:43:49;12.75;;;6.00;;
74347;SDS011;62778;50.406;10.008;2023-01-24T01:46:26;11.98;;;6.00;;
74347;SDS011;62778;50.406;10.008;2023-01-24T01:47:34;12.85;;;6.68;;
74347;SDS011;62778;50.406;10.008;2023-01-24T01:48:37;13.63;;;6.60;;
74347;SDS011;62778;50.406;10.008;2023-01-24T01:49:35;12.37;;;6.17;;
74347;SDS011;62778;50.406;10.008;2023-01-24T01:50:31;13.05;;;6.50;;
74347;SDS011;62778;50.406;10.008;2023-01-24T01:52:04;14.15;;;7.50;;
74347;SDS011;62778;50.406;10.008;2023-01-24T01:52:54;14.02;;;6.68;;
74347;SDS011;62778;50.406;10.008;2023-01-24T01:53:51;14.60;;;6.37;;
74347;SDS011;62778;50.406;10.008;2023-01-24T01:54:56;13.73;;;6.30;;
74347;SDS011;62778;50.406;10.008;2023-01-24T01:55:58;13.75;;;6.38;;
74347;SDS011;62778;50.406;10.008;2023-01-24T01:57:01;13.63;;;6.63;;
74347;SDS011;62778;50.406;10.008;2023-01-24T01:58:02;13.33;;;6.40;;
74347;SDS011;62778;50.406;10.008;2023-01-24T01:58:59;13.57;;;6.82;;
74347;SDS011;62778;50.406;10.008;2023-01-24T02:00:07;13.25;;;6.75;;
74347;SDS011;62778;50.406;10.008;2023-01-24T02:01:05;14.02;;;6.78;;
74347;SDS011;62778;50.406;10.008;2023-01-24T02:02:00;13.03;;;6.50;;
74347;SDS011;62778;50.406;10.008;2023-01-24T02:02:57;12.43;;;5.97;;
74347;SDS011;62778;50.406;10.008;2023-01-24T02:04:22;12.00;;;5.63;;
74347;SDS011;62778;50.406;10.008;2023-01-24T02:05:27;13.85;;;6.32;;
74347;SDS011;62778;50.406;10.008;2023-01-24T02:07:28;13.50;;;6.18;;
74347;SDS011;62778;50.406;10.008;2023-01-24T02:08:25;11.90;;;6.15;;
74347;SDS011;62778;50.406;10.008;2023-01-24T02:09:22;11.32;;;5.70;;
74347;SDS011;62778;50.406;10.008;2023-01-24T02:10:21;12.60;;;6.32;;
74347;SDS011;62778;50.406;10.008;2023-01-24T02:11:17;12.68;;;6.53;;
74347;SDS011;62778;50.406;10.008;2023-01-24T02:12:32;14.35;;;6.55;;
74347;SDS011;62778;50.406;10.008;2023-01-24T02:13:31;11.47;;;5.83;;
74347;SDS011;62778;50.406;10.008;2023-01-24T02:14:27;11.50;;;5.93;;
74347;SDS011;62778;50.406;10.008;2023-01-24T02:15:41;11.80;;;6.07;;
74347;SDS011;62778;50.406;10.008;2023-01-24T02:16:57;12.57;;;5.88;;
74347;SDS011;62778;50.406;10.008;2023-01-24T02:17:52;12.70;;;6.40;;
74347;SDS011;62778;50.406;10.008;2023-01-24T02:18:47;12.53;;;5.83;;
74347;SDS011;62778;50.406;10.008;2023-01-24T02:20:03;11.57;;;5.82;;
74347;SDS011;62778;50.406;10.008;2023-01-24T02:21:06;13.13;;;6.00;;
74347;SDS011;62778;50.406;10.008;2023-01-24T02:22:09;11.67;;;5.50;;
74347;SDS011;62778;50.406;10.008;2023-01-24T02:24:36;12.82;;;6.10;;
74347;SDS011;62778;50.406;10.008;2023-01-24T02:26:22;13.50;;;6.35;;
74347;SDS011;62778;50.406;10.008;2023-01-24T02:27:07;14.15;;;5.93;;
74347;SDS011;62778;50.406;10.008;2023-01-24T02:28:03;11.35;;;5.47;;
74347;SDS011;62778;50.406;10.008;2023-01-24T02:29:00;12.27;;;5.30;;
74347;SDS011;62778;50.406;10.008;2023-01-24T02:29:57;12.45;;;5.97;;
74347;SDS011;62778;50.406;10.008;2023-01-24T02:30:56;12.32;;;6.40;;
74347;SDS011;62778;50.406;10.008;2023-01-24T02:32:51;13.02;;;6.00;;
74347;SDS011;62778;50.406;10.008;2023-01-24T02:33:47;13.03;;;6.27;;
74347;SDS011;62778;50.406;10.008;2023-01-24T02:34:42;11.60;;;5.90;;
74347;SDS011;62778;50.406;10.008;2023-01-24T02:35:37;12.55;;;5.75;;
74347;SDS011;62778;50.406;10.008;2023-01-24T02:36:34;11.33;;;5.47;;
74347;SDS011;62778;50.406;10.008;2023-01-24T02:37:32;12.63;;;5.88;;
74347;SDS011;62778;50.406;10.008;2023-01-24T02:38:30;11.38;;;5.72;;
74347;SDS011;62778;50.406;10.008;2023-01-24T02:39:26;13.63;;;5.80;;
74347;SDS011;62778;50.406;10.008;2023-01-24T02:40:27;12.32;;;6.10;;
74347;SDS011;62778;50.406;10.008;2023-01-24T02:41:25;11.70;;;5.20;;
74347;SDS011;62778;50.406;10.008;2023-01-24T02:42:24;12.50;;;6.13;;
74347;SDS011;62778;50.406;10.008;2023-01-24T02:43:22;12.10;;;5.38;;
74347;SDS011;62778;50.406;10.008;2023-01-24T02:44:21;12.00;;;5.47;;
74347;SDS011;62778;50.406;10.008;2023-01-24T02:45:21;13.18;;;5.75;;
74347;SDS011;62778;50.406;10.008;2023-01-24T02:46:18;11.75;;;6.28;;
74347;SDS011;62778;50.406;10.008;2023-01-24T02:47:14;12.20;;;6.10;;
74347;SDS011;62778;50.406;10.008;2023-01-24T02:48:09;11.75;;;5.63;;
74347;SDS011;62778;50.406;10.008;2023-01-24T02:49:07;12.60;;;5.40;;
74347;SDS011;62778;50.406;10.008;2023-01-24T02:50:04;11.55;;;5.40;;
74347;SDS011;62778;50.406;10.008;2023-01-24T02:51:01;12.02;;;5.82;;
74347;SDS011;62778;50.406;10.008;2023-01-24T02:52:16;12.07;;;5.97;;
74347;SDS011;62778;50.406;10.008;2023-01-24T02:53:29;12.40;;;6.13;;
74347;SDS011;62778;50.406;10.008;2023-01-24T02:54:25;11.88;;;5.10;;
74347;SDS011;62778;50.406;10.008;2023-01-24T02:55:20;11.73;;;5.57;;
74347;SDS011;62778;50.406;10.008;2023-01-24T02:56:16;10.75;;;5.00;;
74347;SDS011;62778;50.406;10.008;2023-01-24T02:57:30;11.57;;;5.60;;
74347;SDS011;62778;50.406;10.008;2023-01-24T02:58:46;13.10;;;6.43;;
74347;SDS011;62778;50.406;10.008;2023-01-24T02:59:41;11.82;;;5.60;;
74347;SDS011;62778;50.406;10.008;2023-01-24T03:00:38;11.60;;;5.32;;
74347;SDS011;62778;50.406;10.008;2023-01-24T03:01:35;12.70;;;6.13;;
74347;SDS011;62778;50.406;10.008;2023-01-24T03:02:30;11.30;;;5.55;;
74347;SDS011;62778;50.406;10.008;2023-01-24T03:03:26;11.40;;;5.60;;
74347;SDS011;62778;50.406;10.008;2023-01-24T03:04:21;10.47;;;5.43;;
74347;SDS011;62778;50.406;10.008;2023-01-24T03:05:16;12.07;;;5.63;;
74347;SDS011;62778;50.406;10.008;2023-01-24T03:06:12;12.30;;;5.65;;
74347;SDS011;62778;50.406;10.008;2023-01-24T03:07:08;11.80;;;5.75;;
74347;SDS011;62778;50.406;10.008;2023-01-24T03:08:04;12.53;;;6.10;;
74347;SDS011;62778;50.406;10.008;2023-01-24T03:08:59;12.20;;;5.60;;
74347;SDS011;62778;50.406;10.008;2023-01-24T03:09:54;12.93;;;5.73;;
74347;SDS011;62778;50.406;10.008;2023-01-24T03:10:49;12.90;;;6.00;;
74347;SDS011;62778;50.406;10.008;2023-01-24T03:11:48;13.18;;;6.35;;
74347;SDS011;62778;50.406;10.008;2023-01-24T03:12:44;12.45;;;5.97;;
74347;SDS011;62778;50.406;10.008;2023-01-24T03:13:58;10.93;;;5.40;;
74347;SDS011;62778;50.406;10.008;2023-01-24T03:15:12;12.75;;;6.10;;
74347;SDS011;62778;50.406;10.008;2023-01-24T03:16:26;12.68;;;6.18;;
74347;SDS011;62778;50.406;10.008;2023-01-24T03:17:40;12.15;;;5.97;;
74347;SDS011;62778;50.406;10.008;2023-01-24T03:18:54;12.02;;;5.63;;
74347;SDS011;62778;50.406;10.008;2023-01-24T03:20:08;11.13;;;5.82;;
74347;SDS011;62778;50.406;10.008;2023-01-24T03:21:22;11.98;;;5.38;;
74347;SDS011;62778;50.406;10.008;2023-01-24T03:22:36;11.90;;;5.80;;
74347;SDS011;62778;50.406;10.008;2023-01-24T03:23:50;11.48;;;5.30;;
74347;SDS011;62778;50.406;10.008;2023-01-24T03:25:04;11.37;;;5.87;;
74347;SDS011;62778;50.406;10.008;2023-01-24T03:26:18;10.73;;;5.00;;
74347;SDS011;62778;50.406;10.008;2023-01-24T03:27:31;10.05;;;5.30;;
74347;SDS011;62778;50.406;10.008;2023-01-24T03:28:45;11.50;;;5.28;;
74347;SDS011;62778;50.406;10.008;2023-01-24T03:30:02;11.75;;;5.50;;
74347;SDS011;62778;50.406;10.008;2023-01-24T03:31:17;11.43;;;5.50;;
74347;SDS011;62778;50.406;10.008;2023-01-24T03:32:31;12.23;;;4.85;;
74347;SDS011;62778;50.406;10.008;2023-01-24T03:33:45;11.30;;;4.85;;
74347;SDS011;62778;50.406;10.008;2023-01-24T03:34:59;11.60;;;5.57;;
74347;SDS011;62778;50.406;10.008;2023-01-24T03:35:54;11.00;;;5.60;;
74347;SDS011;62778;50.406;10.008;2023-01-24T03:36:49;10.77;;;4.77;;
74347;SDS011;62778;50.406;10.008;2023-01-24T03:37:45;9.83;;;4.30;;
74347;SDS011;62778;50.406;10.008;2023-01-24T03:38:58;10.93;;;5.60;;
74347;SDS011;62778;50.406;10.008;2023-01-24T03:40:32;10.45;;;4.70;;
74347;SDS011;62778;50.406;10.008;2023-01-24T03:41:28;11.40;;;4.93;;
74347;SDS011;62778;50.406;10.008;2023-01-24T03:42:24;9.20;;;3.93;;
74347;SDS011;62778;50.406;10.008;2023-01-24T03:43:21;10.60;;;4.85;;
74347;SDS011;62778;50.406;10.008;2023-01-24T03:44:16;9.70;;;4.40;;
74347;SDS011;62778;50.406;10.008;2023-01-24T03:45:13;9.30;;;4.30;;
74347;SDS011;62778;50.406;10.008;2023-01-24T03:46:37;8.93;;;4.00;;
74347;SDS011;62778;50.406;10.008;2023-01-24T03:47:34;8.45;;;3.95;;
74347;SDS011;62778;50.406;10.008;2023-01-24T03:48:30;9.00;;;3.77;;
74347;SDS011;62778;50.406;10.008;2023-01-24T03:49:31;10.25;;;3.90;;
74347;SDS011;62778;50.406;10.008;2023-01-24T03:50:45;10.20;;;4.28;;
74347;SDS011;62778;50.406;10.008;2023-01-24T03:51:59;10.55;;;4.72;;
74347;SDS011;62778;50.406;10.008;2023-01-24T03:53:13;10.07;;;4.80;;
74347;SDS011;62778;50.406;10.008;2023-01-24T03:54:08;10.93;;;4.90;;
74347;SDS011;62778;50.406;10.008;2023-01-24T03:55:04;10.40;;;4.60;;
74347;SDS011;62778;50.406;10.008;2023-01-24T03:56:00;9.77;;;4.33;;
74347;SDS011;62778;50.406;10.008;2023-01-24T03:56:56;10.77;;;4.72;;
74347;SDS011;62778;50.406;10.008;2023-01-24T03:57:51;10.00;;;5.07;;
74347;SDS011;62778;50.406;10.008;2023-01-24T03:58:47;11.15;;;5.30;;
74347;SDS011;62778;50.406;10.008;2023-01-24T03:59:42;10.83;;;4.83;;
74347;SDS011;62778;50.406;10.008;2023-01-24T04:00:38;11.02;;;5.10;;
74347;SDS011;62778;50.406;10.008;2023-01-24T04:01:33;9.20;;;4.35;;
74347;SDS011;62778;50.406;10.008;2023-01-24T04:02:29;9.67;;;4.47;;
74347;SDS011;62778;50.406;10.008;2023-01-24T04:03:24;10.63;;;5.00;;
74347;SDS011;62778;50.406;10.008;2023-01-24T04:04:19;10.70;;;5.07;;
74347;SDS011;62778;50.406;10.008;2023-01-24T04:05:15;9.97;;;4.70;;
74347;SDS011;62778;50.406;10.008;2023-01-24T04:06:10;10.00;;;4.50;;
74347;SDS011;62778;50.406;10.008;2023-01-24T04:07:05;10.02;;;4.60;;
74347;SDS011;62778;50.406;10.008;2023-01-24T04:08:01;9.60;;;4.40;;
74347;SDS011;62778;50.406;10.008;2023-01-24T04:08:57;8.52;;;3.80;;
74347;SDS011;62778;50.406;10.008;2023-01-24T04:09:53;8.23;;;4.20;;
74347;SDS011;62778;50.406;10.008;2023-01-24T04:10:48;9.63;;;4.40;;
74347;SDS011;62778;50.406;10.008;2023-01-24T04:11:43;9.53;;;4.53;;
74347;SDS011;62778;50.406;10.008;2023-01-24T04:12:42;9.18;;;4.10;;
74347;SDS011;62778;50.406;10.008;2023-01-24T04:13:37;9.63;;;4.60;;
74347;SDS011;62778;50.406;10.008;2023-01-24T04:14:32;10.33;;;4.50;;
74347;SDS011;62778;50.406;10.008;2023-01-24T04:15:29;10.53;;;4.77;;
74347;SDS011;62778;50.406;10.008;2023-01-24T04:16:25;9.90;;;4.15;;
74347;SDS011;62778;50.406;10.008;2023-01-24T04:17:20;9.47;;;4.63;;
74347;SDS011;62778;50.406;10.008;2023-01-24T04:18:18;10.53;;;4.77;;
74347;SDS011;62778;50.406;10.008;2023-01-24T04:19:13;9.65;;;4.40;;
74347;SDS011;62778;50.406;10.008;2023-01-24T04:20:09;9.77;;;4.30;;
74347;SDS011;62778;50.406;10.008;2023-01-24T04:21:05;9.73;;;4.07;;
74347;SDS011;62778;50.406;10.008;2023-01-24T04:22:00;9.95;;;4.22;;
74347;SDS011;62778;50.406;10.008;2023-01-24T04:22:56;9.30;;;3.53;;
74347;SDS011;62778;50.406;10.008;2023-01-24T04:23:51;13.37;;;5.10;;
74347;SDS011;62778;50.406;10.008;2023-01-24T04:24:46;10.10;;;5.10;;
74347;SDS011;62778;50.406;10.008;2023-01-24T04:25:42;9.77;;;4.63;;
74347;SDS011;62778;50.406;10.008;2023-01-24T04:26:37;11.00;;;5.45;;
74347;SDS011;62778;50.406;10.008;2023-01-24T04:27:32;10.03;;;4.57;;
74347;SDS011;62778;50.406;10.008;2023-01-24T04:28:28;9.93;;;4.60;;
74347;SDS011;62778;50.406;10.008;2023-01-24T04:29:25;8.90;;;4.53;;
74347;SDS011;62778;50.406;10.008;2023-01-24T04:30:21;11.17;;;5.33;;
74347;SDS011;62778;50.406;10.008;2023-01-24T04:31:16;11.97;;;4.97;;
74347;SDS011;62778;50.406;10.008;2023-01-24T04:32:11;9.35;;;4.63;;
74347;SDS011;62778;50.406;10.008;2023-01-24T04:33:07;10.77;;;4.80;;
74347;SDS011;62778;50.406;10.008;2023-01-24T04:34:02;10.23;;;4.87;;
74347;SDS011;62778;50.406;10.008;2023-01-24T04:34:57;10.87;;;5.03;;
74347;SDS011;62778;50.406;10.008;2023-01-24T04:35:56;11.90;;;5.30;;
74347;SDS011;62778;50.406;10.008;2023-01-24T04:36:52;11.73;;;5.30;;
74347;SDS011;62778;50.406;10.008;2023-01-24T04:37:47;10.27;;;4.65;;
74347;SDS011;62778;50.406;10.008;2023-01-24T04:38:43;12.20;;;5.70;;
74347;SDS011;62778;50.406;10.008;2023-01-24T04:39:38;11.40;;;5.00;;
74347;SDS011;62778;50.406;10.008;2023-01-24T04:40:33;11.43;;;5.60;;
74347;SDS011;62778;50.406;10.008;2023-01-24T04:41:29;12.43;;;5.57;;
74347;SDS011;62778;50.406;10.008;2023-01-24T04:42:24;12.38;;;6.22;;
74347;SDS011;62778;50.406;10.008;2023-01-24T04:43:19;10.30;;;5.23;;
74347;SDS011;62778;50.406;10.008;2023-01-24T04:44:16;11.70;;;6.03;;
74347;SDS011;62778;50.406;10.008;2023-01-24T04:45:11;12.03;;;5.70;;
74347;SDS011;62778;50.406;10.008;2023-01-24T04:46:06;11.27;;;5.40;;
74347;SDS011;62778;50.406;10.008;2023-01-24T04:47:01;11.98;;;5.55;;
74347;SDS011;62778;50.406;10.008;2023-01-24T04:47:57;11.10;;;5.20;;
74347;SDS011;62778;50.406;10.008;2023-01-24T04:48:52;11.73;;;5.37;;
74347;SDS011;62778;50.406;10.008;2023-01-24T04:49:47;11.43;;;5.73;;
74347;SDS011;62778;50.406;10.008;2023-01-24T04:50:43;11.63;;;5.47;;
74347;SDS011;62778;50.406;10.008;2023-01-24T04:51:38;10.70;;;5.00;;
74347;SDS011;62778;50.406;10.008;2023-01-24T04:52:36;10.02;;;4.60;;
74347;SDS011;62778;50.406;10.008;2023-01-24T04:53:32;10.55;;;4.72;;
74347;SDS011;62778;50.406;10.008;2023-01-24T04:54:30;10.47;;;5.10;;
74347;SDS011;62778;50.406;10.008;2023-01-24T04:55:25;10.47;;;4.83;;
74347;SDS011;62778;50.406;10.008;2023-01-24T04:56:21;9.87;;;4.83;;
74347;SDS011;62778;50.406;10.008;2023-01-24T04:57:16;11.00;;;4.53;;
74347;SDS011;62778;50.406;10.008;2023-01-24T04:58:11;9.63;;;4.30;;
74347;SDS011;62778;50.406;10.008;2023-01-24T04:59:07;10.77;;;4.60;;
74347;SDS011;62778;50.406;10.008;2023-01-24T05:00:02;8.73;;;4.30;;
74347;SDS011;62778;50.406;10.008;2023-01-24T05:00:59;10.45;;;4.97;;
74347;SDS011;62778;50.406;10.008;2023-01-24T05:01:54;9.93;;;4.90;;
74347;SDS011;62778;50.406;10.008;2023-01-24T05:02:50;10.20;;;4.50;;
74347;SDS011;62778;50.406;10.008;2023-01-24T05:03:46;9.90;;;4.82;;
74347;SDS011;62778;50.406;10.008;2023-01-24T05:04:41;10.17;;;4.77;;
74347;SDS011;62778;50.406;10.008;2023-01-24T05:05:37;8.50;;;4.38;;
74347;SDS011;62778;50.406;10.008;2023-01-24T05:06:33;10.17;;;5.23;;
74347;SDS011;62778;50.406;10.008;2023-01-24T05:07:28;9.88;;;4.60;;
74347;SDS011;62778;50.406;10.008;2023-01-24T05:08:24;9.37;;;4.63;;
74347;SDS011;62778;50.406;10.008;2023-01-24T05:09:19;8.70;;;4.38;;
74347;SDS011;62778;50.406;10.008;2023-01-24T05:10:14;11.40;;;5.20;;
74347;SDS011;62778;50.406;10.008;2023-01-24T05:11:10;10.47;;;4.77;;
74347;SDS011;62778;50.406;10.008;2023-01-24T05:12:05;10.33;;;4.60;;
74347;SDS011;62778;50.406;10.008;2023-01-24T05:13:01;10.27;;;4.60;;
74347;SDS011;62778;50.406;10.008;2023-01-24T05:13:56;9.33;;;4.23;;
74347;SDS011;62778;50.406;10.008;2023-01-24T05:14:51;9.30;;;4.33;;
74347;SDS011;62778;50.406;10.008;2023-01-24T05:15:47;10.33;;;5.00;;
74347;SDS011;62778;50.406;10.008;2023-01-24T05:16:43;10.32;;;4.93;;
74347;SDS011;62778;50.406;10.008;2023-01-24T05:17:38;10.13;;;5.20;;
74347;SDS011;62778;50.406;10.008;2023-01-24T05:18:34;9.83;;;4.80;;
74347;SDS011;62778;50.406;10.008;2023-01-24T05:19:29;8.97;;;4.43;;
74347;SDS011;62778;50.406;10.008;2023-01-24T05:20:24;9.80;;;5.03;;
74347;SDS011;62778;50.406;10.008;2023-01-24T05:21:20;10.87;;;5.27;;
74347;SDS011;62778;50.406;10.008;2023-01-24T05:22:15;10.13;;;4.80;;
74347;SDS011;62778;50.406;10.008;2023-01-24T05:23:10;10.53;;;4.73;;
74347;SDS011;62778;50.406;10.008;2023-01-24T05:24:06;9.83;;;4.80;;
74347;SDS011;62778;50.406;10.008;2023-01-24T05:25:01;11.53;;;5.10;;
74347;SDS011;62778;50.406;10.008;2023-01-24T05:26:00;9.43;;;4.43;;
74347;SDS011;62778;50.406;10.008;2023-01-24T05:26:56;12.63;;;6.10;;
74347;SDS011;62778;50.406;10.008;2023-01-24T05:27:51;11.00;;;5.53;;
74347;SDS011;62778;50.406;10.008;2023-01-24T05:28:47;11.37;;;5.40;;
74347;SDS011;62778;50.406;10.008;2023-01-24T05:29:43;12.60;;;6.00;;
74347;SDS011;62778;50.406;10.008;2023-01-24T05:30:38;11.13;;;5.47;;
74347;SDS011;62778;50.406;10.008;2023-01-24T05:31:33;11.97;;;5.70;;
74347;SDS011;62778;50.406;10.008;2023-01-24T05:32:29;12.23;;;6.07;;
74347;SDS011;62778;50.406;10.008;2023-01-24T05:33:24;11.40;;;5.47;;
74347;SDS011;62778;50.406;10.008;2023-01-24T05:34:19;10.97;;;6.00;;
74347;SDS011;62778;50.406;10.008;2023-01-24T05:35:15;12.93;;;6.07;;
74347;SDS011;62778;50.406;10.008;2023-01-24T05:36:14;10.33;;;5.30;;
74347;SDS011;62778;50.406;10.008;2023-01-24T05:37:14;11.30;;;5.30;;
74347;SDS011;62778;50.406;10.008;2023-01-24T05:38:09;9.70;;;5.10;;
74347;SDS011;62778;50.406;10.008;2023-01-24T05:39:05;10.83;;;4.93;;
74347;SDS011;62778;50.406;10.008;2023-01-24T05:40:00;10.43;;;5.17;;
74347;SDS011;62778;50.406;10.008;2023-01-24T05:40:59;10.32;;;5.28;;
74347;SDS011;62778;50.406;10.008;2023-01-24T05:41:55;9.70;;;4.90;;
74347;SDS011;62778;50.406;10.008;2023-01-24T05:42:50;9.67;;;5.07;;
74347;SDS011;62778;50.406;10.008;2023-01-24T05:43:46;9.93;;;4.90;;
74347;SDS011;62778;50.406;10.008;2023-01-24T05:44:42;11.85;;;5.47;;
74347;SDS011;62778;50.406;10.008;2023-01-24T05:45:37;11.30;;;5.43;;
74347;SDS011;62778;50.406;10.008;2023-01-24T05:46:35;9.50;;;4.90;;